createdAt,value
2023-04-30T00:00:18.467Z,10.27
2023-04-30T00:02:45.131Z,14.70
2023-04-30T00:05:11.731Z,12.27
2023-04-30T00:07:42.162Z,10.50
2023-04-30T00:10:10.542Z,10.02
2023-04-30T00:12:37.927Z,11.15
2023-04-30T00:15:04.923Z,12.18
2023-04-30T00:17:31.443Z,11.43
2023-04-30T00:19:57.975Z,12.50
2023-04-30T00:22:24.412Z,9.65
2023-04-30T00:24:50.886Z,10.60
2023-04-30T00:27:17.368Z,11.15
2023-04-30T00:29:43.908Z,9.68
2023-04-30T00:32:10.651Z,10.98
2023-04-30T00:34:37.182Z,12.18
2023-04-30T00:37:03.703Z,12.95
2023-04-30T00:39:30.250Z,11.38
2023-04-30T00:41:56.724Z,11.38
2023-04-30T00:44:23.221Z,13.00
2023-04-30T00:46:49.711Z,10.38
2023-04-30T00:49:16.216Z,10.60
2023-04-30T00:51:43.899Z,11.65
2023-04-30T00:54:11.604Z,9.82
2023-04-30T00:56:38.347Z,11.57
2023-04-30T00:59:04.877Z,10.85
2023-04-30T01:01:32.108Z,12.00
2023-04-30T01:03:58.878Z,11.93
2023-04-30T01:06:26.991Z,11.25
2023-04-30T01:08:53.921Z,10.50
2023-04-30T01:11:33.704Z,11.70
2023-04-30T01:14:22.009Z,12.55
2023-04-30T01:16:58.055Z,9.70
2023-04-30T01:19:44.288Z,9.98
2023-04-30T01:22:26.086Z,11.95
2023-04-30T01:25:18.747Z,10.93
2023-04-30T01:28:06.884Z,10.77
2023-04-30T01:30:35.625Z,10.68
2023-04-30T01:33:03.132Z,13.18
2023-04-30T01:35:58.636Z,9.55
2023-04-30T01:38:43.339Z,11.15
2023-04-30T01:41:25.618Z,13.20
2023-04-30T01:44:10.086Z,10.85
2023-04-30T01:46:36.707Z,10.07
2023-04-30T01:49:18.491Z,10.50
2023-04-30T01:51:47.327Z,11.77
2023-04-30T01:54:32.168Z,11.68
2023-04-30T01:57:06.086Z,11.40
2023-04-30T01:59:35.320Z,10.27
2023-04-30T02:02:02.426Z,9.57
2023-04-30T02:04:29.068Z,10.68
2023-04-30T02:06:55.680Z,10.23
2023-04-30T02:09:24.276Z,11.63
2023-04-30T02:11:51.386Z,9.77
2023-04-30T02:14:17.885Z,10.95
2023-04-30T02:16:44.534Z,9.63
2023-04-30T02:19:11.793Z,11.20
2023-04-30T02:21:38.384Z,9.07
2023-04-30T02:24:05.155Z,9.43
2023-04-30T02:26:31.777Z,9.63
2023-04-30T02:28:58.305Z,8.82
2023-04-30T02:31:24.838Z,10.18
2023-04-30T02:33:51.296Z,7.63
2023-04-30T02:36:17.710Z,10.38
2023-04-30T02:38:44.168Z,9.55
2023-04-30T02:41:10.827Z,10.20
2023-04-30T02:43:37.486Z,7.88
2023-04-30T02:46:04.036Z,6.75
2023-04-30T02:48:30.549Z,9.18
2023-04-30T02:50:57.100Z,9.45
2023-04-30T02:53:23.786Z,8.95
2023-04-30T02:55:50.845Z,7.20
2023-04-30T02:58:17.676Z,8.77
2023-04-30T03:00:44.137Z,10.55
2023-04-30T03:03:11.112Z,10.35
2023-04-30T03:05:37.833Z,8.02
2023-04-30T03:08:04.376Z,8.23
2023-04-30T03:10:31.057Z,9.00
2023-04-30T03:12:57.885Z,7.57
2023-04-30T03:15:24.410Z,9.13
2023-04-30T03:17:51.744Z,8.70
2023-04-30T03:20:18.316Z,9.85
2023-04-30T03:22:44.757Z,8.15
2023-04-30T03:25:11.712Z,9.38
2023-04-30T03:27:38.301Z,9.80
2023-04-30T03:30:05.547Z,8.00
2023-04-30T03:32:32.390Z,10.18
2023-04-30T03:34:58.923Z,9.48
2023-04-30T03:37:25.457Z,8.00
2023-04-30T03:39:52.140Z,8.93
2023-04-30T03:42:18.681Z,8.25
2023-04-30T03:44:45.320Z,9.25
2023-04-30T03:47:11.840Z,8.77
2023-04-30T03:49:38.507Z,8.52
2023-04-30T03:52:06.423Z,8.30
2023-04-30T03:54:33.892Z,8.70
2023-04-30T03:57:03.721Z,10.02
2023-04-30T03:59:32.365Z,8.50
2023-04-30T04:02:00.847Z,6.93
2023-04-30T04:04:27.658Z,8.13
2023-04-30T04:06:54.160Z,7.85
2023-04-30T04:09:20.584Z,9.73
2023-04-30T04:11:47.027Z,7.55
2023-04-30T04:14:13.515Z,9.45
2023-04-30T04:16:40.238Z,10.65
2023-04-30T04:19:06.962Z,8.13
2023-04-30T04:21:33.572Z,8.43
2023-04-30T04:24:00.026Z,10.27
2023-04-30T04:26:28.997Z,8.98
2023-04-30T04:28:55.606Z,7.40
2023-04-30T04:31:22.792Z,10.65
2023-04-30T04:33:49.488Z,7.65
2023-04-30T04:36:16.310Z,8.32
2023-04-30T04:38:43.162Z,8.90
2023-04-30T04:41:09.680Z,10.35
2023-04-30T04:43:37.049Z,9.82
2023-04-30T04:46:04.284Z,8.90
2023-04-30T04:48:30.864Z,8.20
2023-04-30T04:50:57.329Z,6.63
2023-04-30T04:53:24.327Z,9.05
2023-04-30T04:55:51.017Z,8.57
2023-04-30T04:58:17.451Z,10.00
2023-04-30T05:00:44.518Z,9.13
2023-04-30T05:03:11.284Z,11.98
2023-04-30T05:05:37.909Z,8.05
2023-04-30T05:08:04.618Z,7.82
2023-04-30T05:10:31.147Z,7.75
2023-04-30T05:12:57.691Z,10.55
2023-04-30T05:15:24.290Z,10.75
2023-04-30T05:17:51.024Z,8.40
2023-04-30T05:20:17.729Z,11.70
2023-04-30T05:22:44.254Z,10.00
2023-04-30T05:25:10.753Z,11.45
2023-04-30T05:27:37.363Z,7.68
2023-04-30T05:30:04.166Z,8.57
2023-04-30T05:32:31.002Z,9.60
2023-04-30T05:34:57.506Z,7.43
2023-04-30T05:37:24.050Z,8.82
2023-04-30T05:39:50.475Z,8.30
2023-04-30T05:42:17.247Z,7.53
2023-04-30T05:44:43.702Z,8.38
2023-04-30T05:47:10.469Z,8.63
2023-04-30T05:49:37.106Z,8.55
2023-04-30T05:52:04.315Z,8.30
2023-04-30T05:54:31.173Z,9.40
2023-04-30T05:56:57.944Z,8.48
2023-04-30T05:59:25.889Z,8.18
2023-04-30T06:01:53.008Z,8.93
2023-04-30T06:04:19.549Z,12.48
2023-04-30T06:06:46.203Z,12.55
2023-04-30T06:09:12.760Z,10.57
2023-04-30T06:11:41.666Z,8.13
2023-04-30T06:14:10.327Z,8.35
2023-04-30T06:16:37.053Z,10.88
2023-04-30T06:19:03.811Z,8.82
2023-04-30T06:21:30.709Z,9.18
2023-04-30T06:23:57.343Z,7.00
2023-04-30T06:26:23.952Z,7.90
2023-04-30T06:28:50.596Z,11.40
2023-04-30T06:31:17.143Z,9.85
2023-04-30T06:33:44.037Z,10.63
2023-04-30T06:36:10.690Z,8.40
2023-04-30T06:38:37.164Z,9.75
2023-04-30T06:41:03.810Z,10.82
2023-04-30T06:43:30.460Z,8.93
2023-04-30T06:45:57.251Z,9.38
2023-04-30T06:48:23.809Z,9.93
2023-04-30T06:50:50.584Z,11.35
2023-04-30T06:53:17.280Z,9.32
2023-04-30T06:55:46.519Z,8.13
2023-04-30T07:00:39.533Z,8.80
2023-04-30T07:03:06.706Z,7.90
2023-04-30T07:05:33.467Z,10.10
2023-04-30T07:08:05.268Z,11.43
2023-04-30T07:10:31.810Z,9.73
2023-04-30T07:12:59.382Z,8.50
2023-04-30T07:15:26.063Z,7.57
2023-04-30T07:17:52.760Z,10.20
2023-04-30T07:20:19.317Z,6.75
2023-04-30T07:22:46.154Z,6.97
2023-04-30T07:25:13.647Z,9.57
2023-04-30T07:27:41.024Z,6.50
2023-04-30T07:30:10.471Z,8.20
2023-04-30T07:32:37.523Z,5.75
2023-04-30T07:35:04.867Z,9.13
2023-04-30T07:37:32.956Z,7.95
2023-04-30T07:40:00.910Z,7.70
2023-04-30T07:42:27.423Z,8.20
2023-04-30T07:44:54.127Z,8.93
2023-04-30T07:47:20.731Z,6.13
2023-04-30T07:49:47.689Z,6.93
2023-04-30T07:52:14.252Z,6.20
2023-04-30T07:54:40.844Z,7.85
2023-04-30T07:57:07.708Z,6.72
2023-04-30T07:59:34.242Z,7.72
2023-04-30T08:02:01.706Z,7.38
2023-04-30T08:04:28.291Z,6.18
2023-04-30T08:06:54.791Z,8.07
2023-04-30T08:09:21.297Z,7.53
2023-04-30T08:11:47.822Z,6.70
2023-04-30T08:14:14.497Z,7.55
2023-04-30T08:16:41.131Z,7.28
2023-04-30T08:19:07.726Z,7.30
2023-04-30T08:21:34.402Z,7.13
2023-04-30T08:24:00.954Z,7.15
2023-04-30T08:26:27.458Z,6.47
2023-04-30T08:28:54.135Z,9.77
2023-04-30T08:31:21.063Z,6.97
2023-04-30T08:33:47.591Z,5.28
2023-04-30T08:36:14.344Z,7.97
2023-04-30T08:38:41.010Z,5.40
2023-04-30T08:41:15.704Z,5.82
2023-04-30T08:46:09.356Z,5.35
2023-04-30T08:48:36.244Z,5.72
2023-04-30T08:51:03.555Z,5.50
2023-04-30T08:53:31.703Z,4.57
2023-04-30T08:55:58.540Z,4.07
2023-04-30T08:58:25.179Z,3.97
2023-04-30T09:00:51.649Z,4.15
2023-04-30T09:03:18.554Z,4.68
2023-04-30T09:05:45.092Z,3.90
2023-04-30T09:08:17.579Z,4.25
2023-04-30T09:10:44.265Z,5.47
2023-04-30T09:13:12.210Z,2.85
2023-04-30T09:15:44.531Z,2.85
2023-04-30T09:18:17.468Z,4.35
2023-04-30T09:20:58.386Z,2.88
2023-04-30T09:25:51.714Z,4.72
2023-04-30T09:28:19.343Z,5.20
2023-04-30T09:30:45.799Z,4.28
2023-04-30T09:33:12.655Z,3.22
2023-04-30T09:35:41.834Z,4.43
2023-04-30T09:38:25.148Z,3.92
2023-04-30T09:40:51.950Z,5.30
2023-04-30T09:43:18.474Z,3.63
2023-04-30T09:45:49.963Z,3.55
2023-04-30T09:48:17.819Z,3.33
2023-04-30T09:50:47.418Z,3.67
2023-04-30T09:53:14.643Z,3.92
2023-04-30T09:55:47.114Z,5.35
2023-04-30T09:58:16.892Z,3.33
2023-04-30T10:00:46.002Z,3.13
2023-04-30T10:03:14.635Z,4.47
2023-04-30T10:08:34.057Z,3.58
2023-04-30T10:11:06.093Z,3.40
2023-04-30T10:13:38.600Z,4.32
2023-04-30T10:16:11.606Z,5.85
2023-04-30T10:18:42.150Z,3.03
2023-04-30T10:21:12.983Z,2.70
2023-04-30T10:23:42.169Z,3.03
2023-04-30T10:26:11.063Z,4.22
2023-04-30T10:28:38.050Z,3.95
2023-04-30T10:31:07.137Z,2.72
2023-04-30T10:33:42.690Z,5.18
2023-04-30T10:36:14.824Z,4.63
2023-04-30T10:38:42.793Z,3.40
2023-04-30T10:41:09.817Z,3.22
2023-04-30T10:43:37.073Z,5.53
2023-04-30T10:46:04.650Z,3.72
2023-04-30T10:48:34.908Z,3.30
2023-04-30T10:51:01.558Z,3.42
2023-04-30T10:53:31.327Z,3.63
2023-04-30T10:56:06.685Z,3.78
2023-04-30T10:58:36.886Z,3.95
2023-04-30T11:01:08.771Z,4.35
2023-04-30T11:03:36.416Z,4.85
2023-04-30T11:06:19.955Z,4.47
2023-04-30T11:08:47.053Z,5.28
2023-04-30T11:11:23.899Z,3.05
2023-04-30T11:14:12.163Z,3.28
2023-04-30T11:16:38.970Z,5.38
2023-04-30T11:19:13.909Z,3.60
2023-04-30T11:22:05.455Z,4.88
2023-04-30T11:24:59.787Z,4.05
2023-04-30T11:27:28.488Z,3.65
2023-04-30T11:29:56.395Z,4.03
2023-04-30T11:32:26.993Z,2.88
2023-04-30T11:34:55.092Z,2.92
2023-04-30T11:37:24.850Z,3.70
2023-04-30T11:39:52.133Z,4.50
2023-04-30T11:42:19.274Z,3.35
2023-04-30T11:44:46.149Z,3.40
2023-04-30T11:47:16.198Z,4.78
2023-04-30T11:49:43.465Z,5.22
2023-04-30T11:52:12.817Z,3.72
2023-04-30T11:54:39.528Z,5.80
2023-04-30T11:57:06.375Z,3.35
2023-04-30T11:59:41.644Z,3.58
2023-04-30T12:02:08.582Z,3.20
2023-04-30T12:04:36.650Z,3.20
2023-04-30T12:07:03.316Z,3.05
2023-04-30T12:09:30.093Z,3.42
2023-04-30T12:11:56.597Z,2.58
2023-04-30T12:14:25.297Z,2.35
2023-04-30T12:16:53.245Z,4.13
2023-04-30T12:19:21.963Z,4.53
2023-04-30T12:21:49.701Z,2.55
2023-04-30T12:24:18.665Z,4.97
2023-04-30T12:26:45.530Z,2.78
2023-04-30T12:29:17.662Z,3.13
2023-04-30T12:31:45.769Z,5.15
2023-04-30T12:34:14.200Z,3.25
2023-04-30T12:36:44.579Z,4.28
2023-04-30T12:39:16.321Z,3.88
2023-04-30T12:41:49.878Z,1.95
2023-04-30T12:44:23.591Z,4.43
2023-04-30T12:46:53.519Z,3.08
2023-04-30T12:49:30.374Z,2.33
2023-04-30T12:52:00.421Z,3.78
2023-04-30T12:54:28.993Z,2.70
2023-04-30T12:57:13.036Z,2.47
2023-04-30T12:59:56.664Z,3.45
2023-04-30T13:02:24.966Z,3.22
2023-04-30T13:04:53.613Z,3.13
2023-04-30T13:07:20.907Z,2.78
2023-04-30T13:09:47.955Z,2.03
2023-04-30T13:12:15.076Z,3.22
2023-04-30T13:14:42.066Z,2.50
2023-04-30T13:17:10.010Z,2.35
2023-04-30T13:19:36.562Z,2.25
2023-04-30T13:22:03.217Z,1.10
2023-04-30T13:24:31.425Z,2.05
2023-04-30T13:26:59.399Z,2.63
2023-04-30T13:29:26.313Z,1.60
2023-04-30T13:31:53.166Z,2.15
2023-04-30T13:34:19.989Z,4.28
2023-04-30T13:36:46.973Z,2.63
2023-04-30T13:39:13.838Z,3.15
2023-04-30T13:41:40.435Z,1.67
2023-04-30T13:44:06.969Z,1.45
2023-04-30T13:46:33.603Z,1.55
2023-04-30T13:49:00.265Z,1.75
2023-04-30T13:51:27.867Z,2.05
2023-04-30T13:53:54.752Z,3.50
2023-04-30T13:56:21.436Z,2.47
2023-04-30T13:58:48.079Z,1.63
2023-04-30T14:01:14.695Z,1.77
2023-04-30T14:03:41.481Z,1.63
2023-04-30T14:06:15.507Z,1.20
2023-04-30T14:08:42.248Z,1.80
2023-04-30T14:11:11.380Z,1.65
2023-04-30T14:13:38.568Z,1.55
2023-04-30T14:16:06.807Z,2.85
2023-04-30T14:18:33.597Z,4.13
2023-04-30T14:21:00.134Z,1.08
2023-04-30T14:23:27.397Z,1.95
2023-04-30T14:25:54.221Z,1.73
2023-04-30T14:28:21.196Z,1.83
2023-04-30T14:30:47.738Z,3.83
2023-04-30T14:33:14.815Z,2.05
2023-04-30T14:35:41.875Z,1.50
2023-04-30T14:38:08.435Z,3.47
2023-04-30T14:40:35.638Z,3.22
2023-04-30T14:43:02.311Z,2.50
2023-04-30T14:45:29.420Z,2.00
2023-04-30T14:47:56.220Z,2.00
2023-04-30T14:50:24.113Z,2.10
2023-04-30T14:52:50.910Z,2.55
2023-04-30T14:55:17.585Z,1.15
2023-04-30T14:57:44.113Z,1.40
2023-04-30T15:00:12.114Z,3.15
2023-04-30T15:02:38.726Z,1.85
2023-04-30T15:05:07.196Z,2.17
2023-04-30T15:07:33.837Z,2.08
2023-04-30T15:10:00.716Z,2.35
2023-04-30T15:12:27.389Z,1.60
2023-04-30T15:14:53.883Z,2.22
2023-04-30T15:17:21.480Z,1.98
2023-04-30T15:19:48.072Z,1.38
2023-04-30T15:22:16.322Z,2.25
2023-04-30T15:24:42.804Z,1.45
2023-04-30T15:27:09.476Z,2.47
2023-04-30T15:29:36.974Z,0.82
2023-04-30T15:32:03.728Z,1.85
2023-04-30T15:34:30.256Z,2.70
2023-04-30T15:36:58.848Z,2.50
2023-04-30T15:39:25.510Z,1.80
2023-04-30T15:41:52.204Z,1.42
2023-04-30T15:44:18.694Z,3.03
2023-04-30T15:46:45.357Z,3.42
2023-04-30T15:49:12.146Z,3.88
2023-04-30T15:51:38.792Z,1.55
2023-04-30T15:54:07.410Z,3.20
2023-04-30T15:56:34.559Z,3.17
2023-04-30T15:59:01.158Z,1.52
2023-04-30T16:01:27.809Z,6.65
2023-04-30T16:03:54.963Z,4.72
2023-04-30T16:06:21.733Z,2.20
2023-04-30T16:08:50.026Z,17.58
2023-04-30T16:11:16.595Z,7.78
2023-04-30T16:13:43.512Z,9.98
2023-04-30T16:16:11.069Z,17.17
2023-04-30T16:18:37.740Z,14.63
2023-04-30T16:21:09.164Z,3.67
2023-04-30T16:23:36.432Z,4.30
2023-04-30T16:26:03.397Z,4.55
2023-04-30T16:28:29.942Z,5.38
2023-04-30T16:30:57.273Z,3.20
2023-04-30T16:33:28.675Z,3.28
2023-04-30T16:35:55.418Z,7.38
2023-04-30T16:38:22.929Z,6.75
2023-04-30T16:40:50.282Z,3.08
2023-04-30T16:43:19.933Z,3.75
2023-04-30T16:45:46.538Z,2.92
2023-04-30T16:48:13.156Z,3.30
2023-04-30T16:50:39.885Z,3.40
2023-04-30T16:53:06.501Z,3.22
2023-04-30T16:55:33.557Z,3.67
2023-04-30T16:58:00.249Z,5.22
2023-04-30T17:00:26.900Z,4.55
2023-04-30T17:02:53.710Z,3.05
2023-04-30T17:05:21.349Z,6.18
2023-04-30T17:07:49.371Z,2.95
2023-04-30T17:10:18.960Z,1.60
2023-04-30T17:12:45.953Z,3.72
2023-04-30T17:15:12.538Z,2.95
2023-04-30T17:17:39.325Z,3.35
2023-04-30T17:20:06.654Z,2.80
2023-04-30T17:22:33.315Z,2.70
2023-04-30T17:25:00.634Z,7.35
2023-04-30T17:29:55.907Z,6.95
2023-04-30T17:32:22.708Z,6.07
2023-04-30T17:34:49.233Z,5.68
2023-04-30T17:37:16.020Z,6.95
2023-04-30T17:39:42.549Z,4.57
2023-04-30T17:42:10.144Z,5.00
2023-04-30T17:44:36.823Z,3.63
2023-04-30T17:47:03.421Z,4.75
2023-04-30T17:49:30.180Z,4.30
2023-04-30T17:51:59.051Z,2.70
2023-04-30T17:54:26.057Z,4.05
2023-04-30T17:56:52.670Z,3.38
2023-04-30T17:59:19.708Z,4.22
2023-04-30T18:01:46.669Z,5.43
2023-04-30T18:04:20.173Z,2.08
2023-04-30T18:06:50.345Z,2.13
2023-04-30T18:09:17.454Z,2.75
2023-04-30T18:11:44.306Z,5.13
2023-04-30T18:14:10.834Z,3.97
2023-04-30T18:16:37.491Z,3.08
2023-04-30T18:19:05.435Z,3.15
2023-04-30T18:21:32.588Z,4.88
2023-04-30T18:24:10.072Z,6.68
2023-04-30T18:26:37.573Z,7.60
2023-04-30T18:29:04.154Z,8.70
2023-04-30T18:31:30.804Z,7.57
2023-04-30T18:33:57.487Z,7.85
2023-04-30T18:36:30.599Z,11.20
2023-04-30T18:38:57.177Z,12.38
2023-04-30T18:44:15.092Z,9.30
2023-04-30T18:48:27.745Z,10.60
2023-04-30T18:49:55.657Z,5.90
2023-04-30T18:52:39.205Z,5.47
2023-04-30T18:55:15.094Z,3.45
2023-04-30T18:57:47.930Z,4.43
2023-04-30T19:02:56.704Z,2.30
2023-04-30T19:05:35.689Z,3.28
2023-04-30T19:08:51.061Z,4.93
2023-04-30T19:11:54.361Z,3.03
2023-04-30T19:14:26.325Z,4.57
2023-04-30T19:17:08.286Z,3.38
2023-04-30T19:19:38.642Z,3.90
2023-04-30T19:22:37.491Z,3.92
2023-04-30T19:25:09.653Z,3.42
2023-04-30T19:27:45.220Z,3.65
2023-04-30T19:33:06.173Z,4.93
2023-04-30T19:36:01.588Z,2.63
2023-04-30T19:38:34.036Z,2.97
2023-04-30T19:41:10.848Z,3.67
2023-04-30T19:43:58.523Z,2.90
2023-04-30T19:46:36.335Z,5.00
2023-04-30T19:49:11.486Z,3.92
2023-04-30T19:51:49.746Z,2.63
2023-04-30T19:54:18.028Z,5.50
2023-04-30T19:56:53.347Z,3.97
2023-04-30T19:59:20.150Z,4.75
2023-04-30T20:01:46.756Z,6.00
2023-04-30T20:04:16.974Z,6.32
2023-04-30T20:06:44.901Z,5.30
2023-04-30T20:09:11.803Z,5.45
2023-04-30T20:11:38.857Z,4.50
2023-04-30T20:14:05.670Z,3.90
2023-04-30T20:16:32.476Z,4.10
2023-04-30T20:19:00.177Z,2.75
2023-04-30T20:21:27.848Z,5.40
2023-04-30T20:23:54.615Z,2.55
2023-04-30T20:29:02.599Z,4.32
2023-04-30T20:31:31.379Z,5.78
2023-04-30T20:34:04.417Z,3.47
2023-04-30T20:36:42.367Z,5.78
2023-04-30T20:39:14.125Z,2.40
2023-04-30T20:41:48.284Z,3.90
2023-04-30T20:44:27.444Z,4.72
2023-04-30T20:46:54.555Z,4.13
2023-04-30T20:49:28.856Z,4.38
2023-04-30T20:52:01.829Z,3.25
2023-04-30T20:54:43.776Z,4.70
2023-04-30T20:57:12.061Z,4.18
2023-04-30T20:59:43.753Z,3.30
2023-04-30T21:02:13.189Z,5.15
2023-04-30T21:04:43.860Z,4.43
2023-04-30T21:07:17.457Z,4.50
2023-04-30T21:10:01.366Z,5.05
2023-04-30T21:12:35.400Z,5.30
2023-04-30T21:15:02.053Z,4.28
2023-04-30T21:18:03.691Z,4.97
2023-04-30T21:20:53.018Z,4.15
2023-04-30T21:23:25.641Z,5.90
2023-04-30T21:26:24.202Z,4.20
2023-04-30T21:28:57.830Z,2.50
2023-04-30T21:31:25.095Z,2.95
2023-04-30T21:33:52.070Z,3.42
2023-04-30T21:36:24.863Z,4.60
2023-04-30T21:41:41.993Z,3.72
2023-04-30T21:44:09.685Z,3.45
2023-04-30T21:46:43.986Z,3.58
2023-04-30T21:49:12.029Z,3.53
2023-04-30T21:52:00.247Z,2.88
2023-04-30T21:54:26.889Z,3.72
2023-04-30T21:57:08.097Z,4.97
2023-04-30T22:02:24.252Z,3.65
2023-04-30T22:04:54.202Z,4.68
2023-04-30T22:07:20.854Z,2.65
2023-04-30T22:10:01.837Z,4.85
2023-04-30T22:12:47.185Z,3.95
2023-04-30T22:16:15.681Z,4.05
2023-04-30T22:18:50.936Z,4.10
2023-04-30T22:21:18.689Z,3.92
2023-04-30T22:26:44.813Z,3.30
2023-04-30T22:29:34.506Z,3.35
2023-04-30T22:32:15.290Z,3.20
2023-04-30T22:34:44.419Z,5.30
2023-04-30T22:37:10.985Z,4.18
2023-04-30T22:40:04.727Z,3.85
2023-04-30T22:45:46.246Z,8.18
2023-04-30T22:48:34.155Z,4.28
2023-04-30T22:51:00.745Z,5.60
2023-04-30T22:53:28.557Z,4.13
2023-04-30T22:55:55.440Z,4.57
2023-04-30T22:58:22.492Z,3.17
2023-04-30T23:00:49.258Z,4.82
2023-04-30T23:03:17.093Z,4.88
2023-04-30T23:05:44.378Z,3.50
2023-04-30T23:08:11.660Z,4.68
2023-04-30T23:10:38.679Z,4.57
2023-04-30T23:13:05.285Z,4.88
2023-04-30T23:15:31.893Z,2.67
2023-04-30T23:18:00.399Z,3.15
2023-04-30T23:20:27.307Z,2.85
2023-04-30T23:22:53.885Z,3.80
2023-04-30T23:25:26.199Z,5.03
2023-04-30T23:28:02.145Z,3.15
2023-04-30T23:30:28.953Z,3.67
2023-04-30T23:32:55.913Z,4.60
2023-04-30T23:35:28.979Z,3.80
2023-04-30T23:37:56.683Z,3.45
2023-04-30T23:40:23.380Z,3.83
2023-04-30T23:42:51.116Z,4.35
2023-04-30T23:45:17.738Z,4.82
2023-04-30T23:47:44.918Z,4.03
2023-04-30T23:50:11.836Z,3.85
2023-04-30T23:52:38.870Z,4.68
2023-04-30T23:55:06.276Z,4.22
2023-04-30T23:57:33.630Z,3.88
